Time;durP1;ratioP1;P1;durP2;ratioP2;P2;SDS_P1;SDS_P2;PMS_P1;PMS_P2;Temp;Humidity;BMP_temperature;BMP_pressure;BME280_temperature;BME280_humidity;BME280_pressure;Samples;Min_cycle;Max_cycle;Signal;HPM_P1;HPM_P2
2022/03/14 00:01:41;;;;;;;65.25;32.33;;;;;;;-0.16;68.84;102450.28;5001947;28;20042;-53
2022/03/14 00:04:08;;;;;;;81.90;36.50;;;;;;;-0.18;69.19;102451.84;5005329;28;20078;-55
2022/03/14 00:06:36;;;;;;;71.97;33.85;;;;;;;-0.18;69.17;102456.06;5003489;28;20047;-55
2022/03/14 00:09:07;;;;;;;74.97;34.38;;;;;;;-0.22;69.47;102452.44;5003749;28;20139;-55
2022/03/14 00:11:37;;;;;;;75.72;35.80;;;;;;;-0.22;69.60;102454.13;4998615;28;20050;-54
2022/03/14 00:14:07;;;;;;;81.85;35.45;;;;;;;-0.23;69.77;102453.22;5002332;28;20050;-53
2022/03/14 00:16:41;;;;;;;78.43;35.78;;;;;;;-0.26;69.30;102460.69;5004090;28;20058;-55
2022/03/14 00:19:08;;;;;;;79.82;37.22;;;;;;;-0.30;69.11;102458.72;5005455;28;20486;-55
2022/03/14 00:21:38;;;;;;;78.78;36.60;;;;;;;-0.32;69.26;102458.63;5004165;28;20064;-55
2022/03/14 00:24:09;;;;;;;77.65;36.95;;;;;;;-0.35;69.53;102457.56;4995539;28;20511;-54
2022/03/14 00:26:35;;;;;;;78.10;35.22;;;;;;;-0.40;69.48;102458.94;5005414;28;20072;-52
2022/03/14 00:29:03;;;;;;;76.10;35.90;;;;;;;-0.43;69.60;102463.84;4998763;28;20506;-55
2022/03/14 00:31:29;;;;;;;77.50;36.67;;;;;;;-0.48;69.08;102460.13;5002661;28;20045;-54
2022/03/14 00:33:56;;;;;;;75.78;37.55;;;;;;;-0.54;69.60;102469.91;5001704;28;20054;-54
2022/03/14 00:36:25;;;;;;;82.55;36.95;;;;;;;-0.60;69.14;102469.50;4999028;28;20411;-53
2022/03/14 00:38:52;;;;;;;75.22;34.45;;;;;;;-0.64;69.88;102474.41;5001948;28;20053;-54
2022/03/14 00:41:20;;;;;;;82.00;40.08;;;;;;;-0.68;69.59;102466.47;5003958;28;20133;-54
2022/03/14 00:43:47;;;;;;;82.05;39.78;;;;;;;-0.72;69.99;102464.50;5005074;28;20050;-53
2022/03/14 00:46:16;;;;;;;81.28;39.58;;;;;;;-0.78;70.27;102467.53;5002529;28;20137;-55
2022/03/14 00:48:43;;;;;;;78.95;37.60;;;;;;;-0.79;70.51;102465.78;5007656;28;20049;-54
2022/03/14 00:51:10;;;;;;;81.35;38.88;;;;;;;-0.81;70.31;102472.44;4998484;28;20137;-53
2022/03/14 00:53:37;;;;;;;80.32;36.72;;;;;;;-0.84;69.96;102464.59;4997617;28;20133;-55
2022/03/14 00:56:05;;;;;;;87.15;41.15;;;;;;;-0.86;70.13;102478.91;5005861;28;20049;-54
2022/03/14 00:58:34;;;;;;;92.05;42.28;;;;;;;-0.88;70.77;102466.84;5002126;28;20046;-55
2022/03/14 01:01:00;;;;;;;90.60;41.70;;;;;;;-0.90;70.47;102470.97;5000144;28;20045;-54
2022/03/14 01:03:27;;;;;;;87.63;40.75;;;;;;;-0.92;70.66;102470.88;5003297;28;20046;-54
2022/03/14 01:05:53;;;;;;;78.78;40.30;;;;;;;-0.93;70.91;102481.81;5002402;28;20077;-55
2022/03/14 01:08:20;;;;;;;78.43;39.67;;;;;;;-1.00;70.49;102477.13;5004031;28;20475;-55
2022/03/14 01:10:47;;;;;;;80.32;38.88;;;;;;;-1.04;70.52;102476.03;5001009;28;20050;-54
2022/03/14 01:13:14;;;;;;;81.50;37.80;;;;;;;-1.04;71.33;102477.66;5000248;28;20419;-53
2022/03/14 01:15:41;;;;;;;79.05;36.78;;;;;;;-1.06;70.98;102474.13;5000868;28;20046;-53
2022/03/14 01:18:08;;;;;;;79.75;38.10;;;;;;;-1.08;71.34;102480.78;5004244;28;20050;-55
2022/03/14 01:20:35;;;;;;;92.82;39.67;;;;;;;-1.13;70.82;102480.47;5002461;28;20054;-54
2022/03/14 01:23:01;;;;;;;80.75;36.83;;;;;;;-1.14;71.35;102482.94;5006296;28;20046;-54
2022/03/14 01:25:28;;;;;;;79.45;37.95;;;;;;;-1.15;71.20;102476.06;4997297;28;20046;-53
2022/03/14 01:27:55;;;;;;;80.53;38.40;;;;;;;-1.18;71.60;102483.50;5004715;28;20049;-54
2022/03/14 01:30:22;;;;;;;77.20;37.58;;;;;;;-1.18;71.62;102480.97;5002679;28;20050;-56
2022/03/14 01:32:50;;;;;;;81.88;36.50;;;;;;;-1.19;71.89;102480.06;5005048;28;20058;-54
2022/03/14 01:35:18;;;;;;;81.38;38.22;;;;;;;-1.19;71.79;102479.19;4994541;28;20049;-54
2022/03/14 01:37:49;;;;;;;78.38;37.55;;;;;;;-1.19;72.00;102479.19;4996087;28;20054;-55
2022/03/14 01:40:16;;;;;;;78.93;36.80;;;;;;;-1.19;71.94;102479.19;4997704;28;20046;-55
2022/03/14 01:42:42;;;;;;;71.93;35.97;;;;;;;-1.18;72.32;102486.94;4998962;28;20598;-55
2022/03/14 01:45:10;;;;;;;75.28;34.25;;;;;;;-1.16;72.33;102484.50;5004625;28;20050;-54
2022/03/14 01:47:38;;;;;;;72.53;33.60;;;;;;;-1.17;71.85;102487.81;5001507;28;20054;-55
2022/03/14 01:50:07;;;;;;;68.68;32.10;;;;;;;-1.17;71.84;102485.28;5001160;28;20046;-54
2022/03/14 01:52:34;;;;;;;71.68;32.45;;;;;;;-1.19;71.87;102491.91;5003733;28;20045;-54
2022/03/14 01:55:02;;;;;;;75.80;34.25;;;;;;;-1.22;71.59;102496.81;4998666;28;20047;-55
2022/03/14 01:57:29;;;;;;;72.95;34.60;;;;;;;-1.29;71.03;102498.94;5001948;28;20045;-55
2022/03/14 01:59:56;;;;;;;68.72;34.00;;;;;;;-1.34;71.16;102499.41;4995273;28;20053;-55
2022/03/14 02:02:28;;;;;;;75.72;33.70;;;;;;;-1.42;71.71;102493.81;5275662;22;20123;-96
2022/03/14 02:04:55;;;;;;;73.47;34.17;;;;;;;-1.42;71.76;102496.34;5020277;28;20084;-95
2022/03/14 02:07:26;;;;;;;72.43;32.75;;;;;;;-1.46;71.65;102494.38;5020017;28;20079;-96
2022/03/14 02:09:53;;;;;;;72.38;33.13;;;;;;;-1.49;72.06;102494.16;5026113;28;20054;-95
2022/03/14 02:12:20;;;;;;;72.70;32.55;;;;;;;-1.47;72.03;102497.69;5025747;28;20046;-96
2022/03/14 02:14:47;;;;;;;72.10;32.47;;;;;;;-1.49;72.86;102494.16;5023306;28;20042;-95
2022/03/14 02:17:16;;;;;;;68.95;32.17;;;;;;;-1.51;73.25;102500.81;5025677;28;20050;-96
2022/03/14 02:19:43;;;;;;;69.38;31.35;;;;;;;-1.48;73.26;102501.03;5018502;28;20725;-95
2022/03/14 02:22:16;;;;;;;68.68;31.40;;;;;;;-1.43;73.32;102499.69;5023956;28;20073;-94
2022/03/14 02:24:48;;;;;;;62.03;29.40;;;;;;;-1.45;73.92;102496.16;5025030;28;20026;-95
2022/03/14 02:27:16;;;;;;;60.83;29.23;;;;;;;-1.44;73.63;102497.91;5017428;28;20038;-96
2022/03/14 02:29:45;;;;;;;67.65;31.40;;;;;;;-1.41;74.25;102504.88;5022662;28;20042;-96
2022/03/14 02:32:13;;;;;;;58.70;30.25;;;;;;;-1.40;74.20;102504.97;5023603;28;20038;-96
2022/03/14 02:34:46;;;;;;;63.00;29.33;;;;;;;-1.42;74.21;102510.72;5023830;28;20050;-95
2022/03/14 02:37:16;;;;;;;57.53;28.92;;;;;;;-1.41;73.84;102510.84;5034363;28;20069;-95
2022/03/14 02:39:43;;;;;;;59.33;26.55;;;;;;;-1.40;74.03;102510.06;4990557;23;20393;-48
2022/03/14 02:42:09;;;;;;;61.05;28.23;;;;;;;-1.41;73.69;102510.84;4961502;28;20496;-48
2022/03/14 02:44:43;;;;;;;53.28;26.95;;;;;;;-1.42;74.02;102505.66;4962555;28;20053;-49
2022/03/14 02:47:10;;;;;;;68.47;28.70;;;;;;;-1.43;74.24;102507.31;4961185;28;20086;-50
2022/03/14 02:49:37;;;;;;;56.15;25.83;;;;;;;-1.44;73.77;102504.66;4962216;28;20061;-48
2022/03/14 02:52:04;;;;;;;62.00;27.08;;;;;;;-1.43;74.58;102508.97;4961884;28;20061;-48
2022/03/14 02:54:32;;;;;;;55.38;26.75;;;;;;;-1.44;74.58;102508.09;4962122;28;20054;-47
2022/03/14 02:56:58;;;;;;;58.78;28.30;;;;;;;-1.46;74.11;102514.72;4961942;28;20054;-47
2022/03/14 02:59:25;;;;;;;53.95;24.95;;;;;;;-1.45;74.74;102506.31;4961681;28;20410;-48
2022/03/14 03:01:51;;;;;;;62.80;28.02;;;;;;;-1.46;74.37;102507.09;4960420;28;20455;-47
2022/03/14 03:04:18;;;;;;;53.83;26.40;;;;;;;-1.45;74.81;102513.06;4962311;28;20102;-48
2022/03/14 03:06:45;;;;;;;58.72;26.77;;;;;;;-1.46;74.66;102513.84;4962473;28;20062;-48
2022/03/14 03:09:12;;;;;;;60.03;27.67;;;;;;;-1.47;74.83;102512.97;4963159;28;20054;-48
2022/03/14 03:11:41;;;;;;;57.83;26.60;;;;;;;-1.47;74.71;102517.16;4962506;28;20055;-48
2022/03/14 03:14:07;;;;;;;60.28;28.23;;;;;;;-1.48;74.84;102516.28;4961768;28;20137;-48
2022/03/14 03:16:34;;;;;;;53.55;26.90;;;;;;;-1.49;74.57;102511.09;4962102;28;20487;-49
2022/03/14 03:19:01;;;;;;;55.13;26.67;;;;;;;-1.54;73.95;102520.06;4961524;28;20488;-48
2022/03/14 03:21:28;;;;;;;55.80;26.73;;;;;;;-1.59;73.92;102527.34;4961504;28;20055;-48
2022/03/14 03:23:54;;;;;;;50.70;23.98;;;;;;;-1.65;74.11;102521.84;4961258;28;20050;-49
2022/03/14 03:26:21;;;;;;;57.05;25.70;;;;;;;-1.69;74.03;102527.50;4961523;28;20054;-48
2022/03/14 03:28:49;;;;;;;52.00;24.15;;;;;;;-1.75;73.81;102534.69;4960742;28;20042;-48
2022/03/14 03:31:18;;;;;;;54.40;24.90;;;;;;;-1.83;74.06;102529.09;4962193;28;20051;-48
2022/03/14 03:33:45;;;;;;;50.72;24.08;;;;;;;-1.89;73.66;102530.31;4961714;28;20355;-48
2022/03/14 03:36:12;;;;;;;57.05;26.10;;;;;;;-1.96;73.43;102539.16;4960858;28;20389;-49
2022/03/14 03:38:39;;;;;;;52.30;25.55;;;;;;;-2.02;73.69;102539.63;4925891;28;1072238;-50
2022/03/14 03:41:05;;;;;;;56.65;26.05;;;;;;;-2.06;73.70;102547.81;4961961;28;20145;-49
2022/03/14 03:43:32;;;;;;;54.35;25.58;;;;;;;-2.08;73.90;102548.44;4961440;28;20047;-48
2022/03/14 03:46:00;;;;;;;57.05;25.65;;;;;;;-2.12;74.08;102549.88;4961305;28;20051;-48
2022/03/14 03:48:27;;;;;;;58.40;26.88;;;;;;;-2.16;74.03;102549.53;4962382;28;20503;-48
2022/03/14 03:50:53;;;;;;;59.65;27.63;;;;;;;-2.20;74.29;102552.66;4962410;28;20125;-49
2022/03/14 03:53:19;;;;;;;56.03;26.83;;;;;;;-2.23;74.59;102549.09;4962805;28;20060;-48
2022/03/14 03:55:46;;;;;;;65.95;27.60;;;;;;;-2.24;74.27;102554.97;4961863;28;20392;-48
2022/03/14 03:58:12;;;;;;;62.75;27.27;;;;;;;-2.24;74.89;102546.47;4961771;28;20047;-50
2022/03/14 04:00:39;;;;;;;65.68;28.42;;;;;;;-2.24;74.89;102546.47;4962149;28;21048;-48
2022/03/14 04:03:07;;;;;;;60.70;27.58;;;;;;;-2.26;75.11;102548.00;4962439;28;20047;-49
2022/03/14 04:05:35;;;;;;;54.95;26.58;;;;;;;-2.28;74.53;102549.56;4962044;28;20054;-50
2022/03/14 04:08:02;;;;;;;60.50;27.75;;;;;;;-2.32;75.03;102548.44;4962392;28;20110;-49
2022/03/14 04:10:29;;;;;;;56.88;26.67;;;;;;;-2.34;74.44;102554.19;4962706;28;20511;-50
2022/03/14 04:13:03;;;;;;;60.20;25.13;;;;;;;-2.40;74.23;102552.09;4962598;28;20047;-49
2022/03/14 04:15:30;;;;;;;61.47;26.75;;;;;;;-2.44;74.30;102552.66;4962328;28;20051;-49
2022/03/14 04:17:57;;;;;;;60.50;28.48;;;;;;;-2.47;74.02;102556.63;4962286;28;20050;-48
2022/03/14 04:20:25;;;;;;;52.83;25.27;;;;;;;-2.49;74.34;102558.16;4962580;28;20494;-48
2022/03/14 04:22:51;;;;;;;56.58;25.13;;;;;;;-2.52;74.41;102563.03;4966697;28;20050;-50
2022/03/14 04:25:18;;;;;;;63.30;28.23;;;;;;;-2.55;74.58;102559.47;4965571;28;20055;-49
2022/03/14 04:27:44;;;;;;;56.97;26.40;;;;;;;-2.59;75.02;102560.03;4966594;28;20384;-47
2022/03/14 04:30:11;;;;;;;53.97;26.35;;;;;;;-2.62;75.09;102557.22;4965746;28;20054;-48
2022/03/14 04:32:38;;;;;;;65.82;26.85;;;;;;;-2.63;75.23;102562.19;4963959;28;20085;-48
2022/03/14 04:35:05;;;;;;;55.88;25.67;;;;;;;-2.65;74.76;102557.00;4964980;28;20423;-48
2022/03/14 04:37:33;;;;;;;60.42;27.40;;;;;;;-2.70;74.74;102563.41;4962754;28;20145;-48
2022/03/14 04:39:59;;;;;;;56.40;26.33;;;;;;;-2.73;74.57;102562.31;4965405;28;20439;-48
2022/03/14 04:42:26;;;;;;;56.42;26.05;;;;;;;-2.78;74.62;102567.03;4965260;28;20051;-49
2022/03/14 04:44:54;;;;;;;53.83;25.67;;;;;;;-2.82;74.73;102564.16;4964898;28;20054;-49
2022/03/14 04:47:20;;;;;;;56.88;26.63;;;;;;;-2.84;75.01;102566.59;4960284;28;20054;-49
2022/03/14 04:49:47;;;;;;;58.97;27.15;;;;;;;-2.88;75.00;102562.06;4963497;28;20046;-50
2022/03/14 04:52:13;;;;;;;55.80;25.75;;;;;;;-2.89;75.51;102567.91;4964800;28;20054;-48
2022/03/14 04:54:42;;;;;;;63.22;28.45;;;;;;;-2.90;75.36;102566.13;4964627;28;20058;-49
2022/03/14 04:57:09;;;;;;;65.03;29.33;;;;;;;-2.92;75.70;102575.28;4963714;28;20159;-50
2022/03/14 04:59:35;;;;;;;72.28;31.83;;;;;;;-2.94;75.58;102570.09;4961839;28;20043;-48
2022/03/14 05:02:02;;;;;;;70.78;31.35;;;;;;;-2.93;75.76;102573.50;4964244;28;20169;-48
2022/03/14 05:04:28;;;;;;;77.15;29.13;;;;;;;-2.95;75.47;102565.78;4964474;28;20677;-49
2022/03/14 05:06:55;;;;;;;73.43;29.15;;;;;;;-2.94;75.30;102569.22;4962806;28;20051;-48
2022/03/14 05:09:22;;;;;;;68.97;29.75;;;;;;;-2.95;75.84;102569.97;4962111;28;20510;-49
2022/03/14 05:11:49;;;;;;;69.22;31.55;;;;;;;-2.98;75.45;102570.63;4961319;28;20105;-49
2022/03/14 05:14:16;;;;;;;75.82;31.63;;;;;;;-2.98;75.87;102570.63;4962120;28;20066;-48
2022/03/14 05:16:43;;;;;;;75.15;31.40;;;;;;;-2.98;75.73;102574.81;4962971;28;20055;-49
2022/03/14 05:19:10;;;;;;;71.32;31.38;;;;;;;-2.97;76.66;102571.50;4960335;28;20145;-48
2022/03/14 05:21:36;;;;;;;76.93;31.85;;;;;;;-2.97;76.51;102574.06;4964698;28;20047;-49
2022/03/14 05:24:02;;;;;;;64.18;28.20;;;;;;;-2.95;76.39;102580.13;4963676;28;20054;-49
2022/03/14 05:26:29;;;;;;;70.38;31.48;;;;;;;-2.93;76.65;102578.59;4962331;28;20508;-49
2022/03/14 05:28:57;;;;;;;60.90;27.30;;;;;;;-2.90;76.78;102578.81;4961178;28;20149;-50
2022/03/14 05:31:24;;;;;;;61.72;28.45;;;;;;;-2.84;77.36;102576.72;4962500;28;20054;-51
2022/03/14 05:33:50;;;;;;;68.55;29.35;;;;;;;-2.80;76.77;102582.91;4962324;28;20058;-48
2022/03/14 05:36:17;;;;;;;58.00;26.13;;;;;;;-2.77;76.65;102584.03;4962636;28;20059;-48
2022/03/14 05:38:44;;;;;;;57.78;25.02;;;;;;;-2.73;76.77;102583.50;4959165;28;20055;-50
2022/03/14 05:41:10;;;;;;;61.10;24.95;;;;;;;-2.69;76.90;102580.41;4965856;28;20082;-50
2022/03/14 05:43:37;;;;;;;66.53;26.83;;;;;;;-2.64;76.84;102580.75;4963059;28;20050;-47
2022/03/14 05:46:06;;;;;;;53.28;24.48;;;;;;;-2.58;76.91;102586.31;4961136;28;20138;-48
2022/03/14 05:48:32;;;;;;;59.53;24.55;;;;;;;-2.52;77.00;102575.72;4961993;28;20047;-48
2022/03/14 05:51:00;;;;;;;53.13;23.75;;;;;;;-2.45;77.05;102588.09;4962059;28;20066;-49
2022/03/14 05:53:26;;;;;;;51.33;23.88;;;;;;;-2.37;76.95;102594.63;4957793;28;20055;-51
2022/03/14 05:55:53;;;;;;;50.35;22.08;;;;;;;-2.27;77.87;102587.78;4959003;28;21016;-53
2022/03/14 05:58:19;;;;;;;41.83;21.20;;;;;;;-2.14;77.78;102594.63;4958442;28;20057;-49
2022/03/14 06:00:48;;;;;;;47.17;19.98;;;;;;;-2.00;78.05;102593.09;4961379;28;20054;-49
2022/03/14 06:03:16;;;;;;;42.00;20.45;;;;;;;-1.87;77.71;102593.19;4958897;28;20055;-50
2022/03/14 06:05:43;;;;;;;47.35;22.42;;;;;;;-1.73;77.77;102596.72;4961052;28;20479;-52
2022/03/14 06:08:10;;;;;;;41.53;19.33;;;;;;;-1.61;77.86;102595.03;4958897;28;20105;-50
2022/03/14 06:10:36;;;;;;;38.10;18.33;;;;;;;-1.45;78.25;102597.91;4959378;28;20054;-50
2022/03/14 06:13:03;;;;;;;37.47;17.33;;;;;;;-1.29;77.78;102605.81;4959312;28;20054;-48
2022/03/14 06:15:29;;;;;;;33.78;16.20;;;;;;;-1.05;77.96;102610.81;4960960;28;20061;-49
2022/03/14 06:17:56;;;;;;;31.10;15.32;;;;;;;-0.85;78.01;102613.06;4961437;28;20050;-49
2022/03/14 06:20:24;;;;;;;33.83;17.23;;;;;;;-0.65;77.66;102615.28;4961134;28;20050;-48
2022/03/14 06:22:50;;;;;;;27.55;16.13;;;;;;;-0.43;77.40;102616.72;4960830;28;20055;-48
2022/03/14 06:25:18;;;;;;;32.20;16.60;;;;;;;-0.23;76.64;102621.44;4959874;28;20062;-50
2022/03/14 06:27:45;;;;;;;33.78;15.95;;;;;;;-0.05;76.00;102607.34;4960214;28;20610;-48
2022/03/14 06:30:13;;;;;;;28.52;14.68;;;;;;;0.18;75.54;102620.69;4960903;28;20053;-49
2022/03/14 06:32:41;;;;;;;30.70;14.43;;;;;;;0.42;75.33;102617.13;4962992;28;20476;-49
2022/03/14 06:35:10;;;;;;;29.05;15.85;;;;;;;0.66;74.58;102622.00;4961300;28;20573;-52
2022/03/14 06:37:38;;;;;;;33.08;15.98;;;;;;;0.90;74.22;102615.84;4960041;28;21011;-50
2022/03/14 06:40:06;;;;;;;26.20;14.70;;;;;;;1.15;72.83;102615.66;4959869;28;20150;-49
2022/03/14 06:42:34;;;;;;;34.10;15.85;;;;;;;1.43;71.95;102623.28;4962050;28;20054;-49
2022/03/14 06:45:02;;;;;;;32.67;15.05;;;;;;;1.61;70.75;102621.81;4961723;28;20061;-50
2022/03/14 06:47:28;;;;;;;30.98;15.60;;;;;;;1.83;70.52;102621.38;4962501;28;20105;-49
2022/03/14 06:49:55;;;;;;;27.80;16.25;;;;;;;2.00;69.87;102619.75;4961807;28;20065;-49
2022/03/14 06:52:21;;;;;;;27.20;15.77;;;;;;;2.11;68.94;102631.50;4959401;28;20062;-48
2022/03/14 06:54:49;;;;;;;28.25;15.52;;;;;;;2.30;68.84;102615.50;4959450;28;20086;-49
2022/03/14 06:57:15;;;;;;;32.10;16.52;;;;;;;2.51;67.70;102617.53;4959527;28;20585;-50
2022/03/14 06:59:42;;;;;;;30.75;16.83;;;;;;;2.69;66.88;102616.78;4962635;28;20058;-49
2022/03/14 07:02:09;;;;;;;30.90;17.15;;;;;;;2.87;67.02;102612.63;4959376;28;20535;-52
2022/03/14 07:04:36;;;;;;;29.35;15.68;;;;;;;3.08;66.77;102607.75;4963755;28;20050;-49
2022/03/14 07:07:04;;;;;;;35.05;18.00;;;;;;;3.25;65.30;102621.44;4964320;28;20445;-49
2022/03/14 07:09:30;;;;;;;34.55;17.88;;;;;;;3.39;64.27;102616.22;4965168;28;20042;-48
2022/03/14 07:11:58;;;;;;;30.70;16.92;;;;;;;3.54;63.67;102615.22;4955954;28;20153;-48
2022/03/14 07:14:25;;;;;;;36.75;19.52;;;;;;;3.64;62.61;102618.34;4943906;28;20058;-49
2022/03/14 07:16:51;;;;;;;29.45;16.65;;;;;;;3.77;62.46;102615.56;4962285;28;20050;-53
2022/03/14 07:19:18;;;;;;;44.38;22.50;;;;;;;3.91;61.87;102617.94;4952139;28;20054;-49
2022/03/14 07:21:44;;;;;;;35.33;19.30;;;;;;;3.99;60.89;102616.63;4951044;28;20061;-48
2022/03/14 07:24:11;;;;;;;34.20;18.02;;;;;;;4.08;60.54;102617.06;4951741;28;20047;-48
2022/03/14 07:26:37;;;;;;;27.77;16.65;;;;;;;4.13;59.91;102611.34;4954504;28;20051;-47
2022/03/14 07:29:05;;;;;;;32.22;17.92;;;;;;;4.20;59.49;102609.09;4953546;28;20520;-49
2022/03/14 07:31:32;;;;;;;34.83;20.10;;;;;;;4.25;59.88;102608.50;4954531;28;20061;-50
2022/03/14 07:33:58;;;;;;;34.85;18.63;;;;;;;4.20;58.76;102617.66;4953807;28;20047;-46
2022/03/14 07:36:25;;;;;;;37.03;20.35;;;;;;;4.31;59.46;102621.63;4967701;28;20053;-48
2022/03/14 07:38:51;;;;;;;39.10;20.05;;;;;;;4.41;59.71;102628.94;4959599;28;20061;-46
2022/03/14 07:41:18;;;;;;;33.30;18.70;;;;;;;4.53;59.35;102625.19;4956029;28;20561;-47
2022/03/14 07:43:44;;;;;;;34.47;17.85;;;;;;;4.67;58.92;102622.41;4959381;28;20759;-47
2022/03/14 07:46:12;;;;;;;33.78;17.88;;;;;;;4.78;58.58;102620.38;4959518;28;20058;-47
2022/03/14 07:48:39;;;;;;;32.75;18.83;;;;;;;4.94;58.44;102617.66;4958282;28;20047;-49
2022/03/14 07:51:08;;;;;;;32.10;16.52;;;;;;;5.18;57.79;102612.72;4956218;28;20490;-52
2022/03/14 07:53:34;;;;;;;30.42;16.70;;;;;;;5.34;57.17;102615.16;4951616;28;20691;-51
2022/03/14 07:56:01;;;;;;;34.72;18.38;;;;;;;5.56;56.06;102609.22;4955712;28;20065;-50
2022/03/14 07:58:28;;;;;;;35.28;17.88;;;;;;;5.67;55.91;102615.69;4958973;28;20058;-48
2022/03/14 08:00:54;;;;;;;28.55;17.83;;;;;;;5.84;55.67;102610.38;4962440;28;20483;-48
2022/03/14 08:03:24;;;;;;;28.20;17.25;;;;;;;6.06;55.56;102607.88;4961759;28;20111;-46
2022/03/14 08:06:00;;;;;;;29.73;17.63;;;;;;;6.19;54.95;102606.66;4958583;28;20059;-45
2022/03/14 08:08:26;;;;;;;30.73;17.38;;;;;;;6.44;54.37;102611.09;4955618;28;20597;-47
2022/03/14 08:10:54;;;;;;;28.15;17.58;;;;;;;6.59;54.25;102603.94;4959410;28;20440;-47
2022/03/14 08:13:20;;;;;;;25.98;16.48;;;;;;;6.80;54.25;102607.31;4958528;28;20503;-46
2022/03/14 08:15:47;;;;;;;24.27;15.07;;;;;;;7.09;53.68;102607.50;4957374;28;20050;-46
2022/03/14 08:18:14;;;;;;;34.20;18.58;;;;;;;7.34;52.45;102604.97;4958914;28;20063;-46
2022/03/14 08:20:42;;;;;;;30.98;18.92;;;;;;;7.56;51.59;102601.41;4957601;28;20126;-52
2022/03/14 08:23:08;;;;;;;33.72;20.40;;;;;;;7.58;49.80;102603.22;4957488;28;20499;-47
2022/03/14 08:25:35;;;;;;;35.97;20.10;;;;;;;7.74;49.95;102593.38;4959404;28;20062;-47
2022/03/14 08:28:02;;;;;;;32.97;19.65;;;;;;;7.99;49.92;102593.38;4955944;28;20078;-47
2022/03/14 08:30:29;;;;;;;38.45;24.17;;;;;;;8.27;48.53;102583.88;4955750;28;20565;-47
2022/03/14 08:32:57;;;;;;;41.58;24.60;;;;;;;8.48;48.11;102587.16;4956039;28;20051;-47
2022/03/14 08:35:24;;;;;;;36.53;21.02;;;;;;;8.60;47.27;102590.09;4956971;28;20061;-52
2022/03/14 08:37:54;;;;;;;31.05;18.83;;;;;;;8.88;46.53;102572.81;4956448;28;20141;-51
2022/03/14 08:40:22;;;;;;;33.15;21.55;;;;;;;9.03;46.09;102575.81;4935596;28;20095;-50
2022/03/14 08:42:51;;;;;;;39.15;22.05;;;;;;;9.12;45.69;102570.88;4935392;28;20433;-53
2022/03/14 08:45:18;;;;;;;66.25;41.85;;;;;;;9.18;44.53;102571.03;4934447;29;20047;-53
2022/03/14 08:47:45;;;;;;;29.48;18.85;;;;;;;9.21;45.02;102568.53;4934558;28;20087;-48
2022/03/14 08:50:13;;;;;;;28.02;19.30;;;;;;;9.31;44.28;102578.28;4936314;28;20055;-57
2022/03/14 08:52:39;;;;;;;30.95;19.08;;;;;;;9.44;44.28;102575.22;4936470;28;20261;-55
2022/03/14 08:55:08;;;;;;;31.95;19.27;;;;;;;9.55;44.06;102579.78;4939850;28;20094;-48
2022/03/14 08:57:35;;;;;;;27.00;17.80;;;;;;;9.62;43.14;102573.91;4944564;28;20058;-49
2022/03/14 09:00:01;;;;;;;28.40;18.17;;;;;;;9.39;42.56;102579.41;4945153;28;20051;-49
2022/03/14 09:02:28;;;;;;;27.73;17.83;;;;;;;9.34;43.12;102577.50;4946025;28;20086;-47
2022/03/14 09:04:54;;;;;;;27.15;17.08;;;;;;;9.34;43.28;102583.53;4941674;28;20059;-48
2022/03/14 09:07:26;;;;;;;26.23;17.45;;;;;;;9.08;43.71;102574.22;4945381;28;20058;-45
2022/03/14 09:09:52;;;;;;;26.60;17.67;;;;;;;8.87;44.57;102566.78;4942440;28;20463;-48
2022/03/14 09:12:20;;;;;;;28.73;17.40;;;;;;;8.77;44.15;102570.78;4937776;28;20048;-46
2022/03/14 09:14:47;;;;;;;23.67;16.08;;;;;;;8.71;44.01;102562.84;4939492;28;20638;-48
2022/03/14 09:17:14;;;;;;;28.45;17.55;;;;;;;8.64;45.10;102571.28;4936951;29;20055;-50
2022/03/14 09:19:41;;;;;;;28.40;18.40;;;;;;;8.60;45.22;102569.44;4937709;29;20047;-47
2022/03/14 09:22:08;;;;;;;29.25;17.52;;;;;;;8.57;44.94;102568.47;4937943;29;20150;-51
2022/03/14 09:24:36;;;;;;;25.52;16.38;;;;;;;8.53;45.15;102567.50;4936712;29;20075;-51
2022/03/14 09:27:03;;;;;;;25.67;15.40;;;;;;;8.48;44.67;102558.75;4935606;29;20066;-48
2022/03/14 09:29:31;;;;;;;29.38;17.20;;;;;;;8.48;45.11;102558.75;4937351;29;20089;-49
2022/03/14 09:31:58;;;;;;;25.77;16.77;;;;;;;8.40;45.08;102560.22;4937474;29;20075;-46
2022/03/14 09:34:24;;;;;;;30.35;17.63;;;;;;;8.34;45.40;102562.63;4938445;28;20094;-52
2022/03/14 09:36:53;;;;;;;27.23;16.70;;;;;;;8.37;45.48;102565.31;4934831;29;20491;-49
2022/03/14 09:39:19;;;;;;;27.58;16.42;;;;;;;8.39;45.81;102559.34;4953611;28;20062;-53
2022/03/14 09:41:49;;;;;;;25.75;16.38;;;;;;;8.40;45.80;102560.22;4963391;28;20054;-49
2022/03/14 09:44:19;;;;;;;29.00;17.30;;;;;;;8.45;45.46;102558.66;4965020;28;20057;-55
2022/03/14 09:46:49;;;;;;;29.88;17.33;;;;;;;8.44;45.57;102562.06;4964938;28;20050;-55
2022/03/14 09:49:17;;;;;;;28.23;17.35;;;;;;;8.48;45.61;102558.75;4964374;28;20858;-52
2022/03/14 09:51:46;;;;;;;28.15;17.40;;;;;;;8.45;45.37;102556.06;4964418;28;20050;-55
2022/03/14 09:54:13;;;;;;;32.03;17.23;;;;;;;8.50;45.76;102557.06;4964130;28;20151;-49
2022/03/14 09:56:42;;;;;;;29.73;17.70;;;;;;;8.56;45.72;102552.06;4964948;28;20491;-51
2022/03/14 09:59:11;;;;;;;30.83;17.80;;;;;;;8.68;45.31;102552.41;4965139;28;20043;-50
2022/03/14 10:01:37;;;;;;;29.02;18.48;;;;;;;8.79;45.48;102540.66;4965015;28;20462;-48
2022/03/14 10:04:07;;;;;;;30.27;17.85;;;;;;;8.84;45.04;102554.63;4964258;28;20069;-52
2022/03/14 10:06:34;;;;;;;33.15;17.42;;;;;;;8.97;45.32;102545.50;4965397;28;20423;-52
2022/03/14 10:09:00;;;;;;;28.23;17.08;;;;;;;9.08;44.02;102538.00;4965240;28;20070;-54
2022/03/14 10:11:27;;;;;;;26.45;17.67;;;;;;;9.08;44.33;102532.84;4964996;28;20043;-54
2022/03/14 10:13:53;;;;;;;26.38;16.45;;;;;;;9.06;44.39;102550.03;4964184;28;20500;-54
2022/03/14 10:16:20;;;;;;;29.98;17.02;;;;;;;9.10;44.66;102539.81;4964296;28;20174;-54
2022/03/14 10:18:55;;;;;;;25.65;16.70;;;;;;;9.19;44.56;102536.56;4964324;28;20065;-59
2022/03/14 10:21:33;;;;;;;30.13;15.88;;;;;;;9.30;44.08;102535.13;4965019;28;20054;-60
2022/03/14 10:24:01;;;;;;;29.20;16.10;;;;;;;9.38;44.05;102532.78;4964813;28;20054;-56
2022/03/14 10:26:29;;;;;;;30.80;17.00;;;;;;;9.47;43.98;102533.88;4965540;28;20055;-54
2022/03/14 10:28:57;;;;;;;26.02;15.65;;;;;;;9.53;43.19;102532.25;4964067;28;20870;-54
2022/03/14 10:31:29;;;;;;;29.88;17.85;;;;;;;9.60;43.19;102535.03;4964111;28;20050;-51
2022/03/14 10:34:01;;;;;;;26.58;17.48;;;;;;;9.72;42.72;102539.63;4965495;28;20047;-54
2022/03/14 10:36:42;;;;;;;33.97;17.95;;;;;;;9.81;42.79;102529.47;4964518;28;20815;-53
2022/03/14 10:39:17;;;;;;;32.80;20.17;;;;;;;9.85;42.30;102522.66;4965293;28;20511;-63
2022/03/14 10:41:46;;;;;;;32.22;19.13;;;;;;;9.89;42.39;102520.19;4965294;28;20216;-55
2022/03/14 10:44:23;;;;;;;33.42;19.33;;;;;;;10.05;41.28;102519.69;4964274;28;20051;-56
2022/03/14 10:46:49;;;;;;;28.58;17.20;;;;;;;10.16;41.07;102517.34;4963733;28;20144;-55
2022/03/14 10:49:16;;;;;;;24.45;16.65;;;;;;;10.26;41.08;102516.72;4964280;28;20050;-52
2022/03/14 10:51:54;;;;;;;37.47;20.17;;;;;;;10.36;39.61;102522.97;4963530;28;20050;-47
2022/03/14 10:54:20;;;;;;;27.45;17.63;;;;;;;10.38;39.69;102518.69;4963501;28;20054;-49
2022/03/14 10:57:01;;;;;;;25.98;16.23;;;;;;;10.47;39.37;102507.66;4964439;28;20077;-52
2022/03/14 10:59:39;;;;;;;28.40;16.88;;;;;;;10.53;39.68;102508.66;4963727;28;20781;-50
2022/03/14 11:02:08;;;;;;;28.77;16.85;;;;;;;10.54;39.05;102507.81;4963649;28;20062;-48
2022/03/14 11:04:42;;;;;;;29.95;16.42;;;;;;;10.54;39.19;102505.22;4963414;28;20840;-50
2022/03/14 11:07:11;;;;;;;30.83;17.27;;;;;;;10.48;39.36;102506.81;4963092;28;20073;-49
2022/03/14 11:09:42;;;;;;;28.17;17.08;;;;;;;10.45;39.21;102506.75;4963102;28;20047;-54
2022/03/14 11:12:11;;;;;;;30.90;17.67;;;;;;;10.40;39.85;102506.63;4963456;28;20460;-55
2022/03/14 11:14:37;;;;;;;26.90;16.55;;;;;;;10.43;39.57;102491.19;4962225;28;20058;-50